sensor_id;sensor_type;location;lat;lon;timestamp;P1;durP1;ratioP1;P2;durP2;ratioP2
27187;SDS011;14708;50.872;5.306;2023-09-18T00:00:25;2.90;;;2.70;;
27187;SDS011;14708;50.872;5.306;2023-09-18T00:02:51;4.13;;;3.35;;
27187;SDS011;14708;50.872;5.306;2023-09-18T00:05:17;3.97;;;3.58;;
27187;SDS011;14708;50.872;5.306;2023-09-18T00:07:43;3.55;;;2.95;;
27187;SDS011;14708;50.872;5.306;2023-09-18T00:10:11;3.92;;;3.50;;
27187;SDS011;14708;50.872;5.306;2023-09-18T00:12:38;3.88;;;3.28;;
27187;SDS011;14708;50.872;5.306;2023-09-18T00:15:04;3.75;;;2.80;;
27187;SDS011;14708;50.872;5.306;2023-09-18T00:17:31;3.28;;;2.97;;
27187;SDS011;14708;50.872;5.306;2023-09-18T00:19:57;3.13;;;2.83;;
27187;SDS011;14708;50.872;5.306;2023-09-18T00:22:23;3.75;;;3.08;;
27187;SDS011;14708;50.872;5.306;2023-09-18T00:24:49;3.33;;;2.97;;
27187;SDS011;14708;50.872;5.306;2023-09-18T00:27:15;3.47;;;3.17;;
27187;SDS011;14708;50.872;5.306;2023-09-18T00:29:41;3.47;;;3.17;;
27187;SDS011;14708;50.872;5.306;2023-09-18T00:32:07;3.33;;;2.88;;
27187;SDS011;14708;50.872;5.306;2023-09-18T00:34:33;4.15;;;3.47;;
27187;SDS011;14708;50.872;5.306;2023-09-18T00:36:59;3.95;;;3.55;;
27187;SDS011;14708;50.872;5.306;2023-09-18T00:39:24;3.42;;;3.13;;
27187;SDS011;14708;50.872;5.306;2023-09-18T00:41:51;3.67;;;3.28;;
27187;SDS011;14708;50.872;5.306;2023-09-18T00:44:19;3.55;;;3.25;;
27187;SDS011;14708;50.872;5.306;2023-09-18T00:46:46;3.15;;;2.83;;
27187;SDS011;14708;50.872;5.306;2023-09-18T00:49:13;4.00;;;3.65;;
27187;SDS011;14708;50.872;5.306;2023-09-18T00:51:39;3.47;;;3.17;;
27187;SDS011;14708;50.872;5.306;2023-09-18T00:54:05;3.47;;;3.13;;
27187;SDS011;14708;50.872;5.306;2023-09-18T00:56:32;3.28;;;2.97;;
27187;SDS011;14708;50.872;5.306;2023-09-18T00:58:59;3.40;;;3.10;;
27187;SDS011;14708;50.872;5.306;2023-09-18T01:01:26;3.10;;;2.80;;
27187;SDS011;14708;50.872;5.306;2023-09-18T01:03:52;3.38;;;3.08;;
27187;SDS011;14708;50.872;5.306;2023-09-18T01:06:18;3.28;;;2.80;;
27187;SDS011;14708;50.872;5.306;2023-09-18T01:08:46;3.40;;;3.10;;
27187;SDS011;14708;50.872;5.306;2023-09-18T01:14:09;5.03;;;3.95;;
27187;SDS011;14708;50.872;5.306;2023-09-18T01:22:07;4.13;;;3.25;;
27187;SDS011;14708;50.872;5.306;2023-09-18T01:24:34;4.15;;;3.13;;
27187;SDS011;14708;50.872;5.306;2023-09-18T01:27:01;3.85;;;3.45;;
27187;SDS011;14708;50.872;5.306;2023-09-18T01:29:31;3.30;;;3.00;;
27187;SDS011;14708;50.872;5.306;2023-09-18T01:31:57;3.10;;;2.80;;
27187;SDS011;14708;50.872;5.306;2023-09-18T01:34:26;3.15;;;2.85;;
27187;SDS011;14708;50.872;5.306;2023-09-18T01:36:58;3.92;;;3.20;;
27187;SDS011;14708;50.872;5.306;2023-09-18T01:39:25;3.42;;;3.13;;
27187;SDS011;14708;50.872;5.306;2023-09-18T01:41:56;4.03;;;3.10;;
27187;SDS011;14708;50.872;5.306;2023-09-18T01:44:27;3.58;;;3.22;;
27187;SDS011;14708;50.872;5.306;2023-09-18T01:46:55;3.30;;;3.00;;
27187;SDS011;14708;50.872;5.306;2023-09-18T01:49:27;3.20;;;2.90;;
27187;SDS011;14708;50.872;5.306;2023-09-18T01:51:53;3.35;;;3.05;;
27187;SDS011;14708;50.872;5.306;2023-09-18T01:54:19;3.47;;;3.17;;
27187;SDS011;14708;50.872;5.306;2023-09-18T01:56:44;2.97;;;2.78;;
27187;SDS011;14708;50.872;5.306;2023-09-18T01:59:11;3.45;;;3.13;;
27187;SDS011;14708;50.872;5.306;2023-09-18T02:01:37;4.15;;;3.10;;
27187;SDS011;14708;50.872;5.306;2023-09-18T02:04:04;5.13;;;3.10;;
27187;SDS011;14708;50.872;5.306;2023-09-18T02:06:29;4.18;;;3.10;;
27187;SDS011;14708;50.872;5.306;2023-09-18T02:08:55;3.45;;;3.15;;
27187;SDS011;14708;50.872;5.306;2023-09-18T02:11:21;3.75;;;3.08;;
27187;SDS011;14708;50.872;5.306;2023-09-18T02:13:46;3.63;;;3.17;;
27187;SDS011;14708;50.872;5.306;2023-09-18T02:16:12;3.65;;;3.35;;
27187;SDS011;14708;50.872;5.306;2023-09-18T02:18:38;3.28;;;2.97;;
27187;SDS011;14708;50.872;5.306;2023-09-18T02:21:04;3.28;;;2.80;;
27187;SDS011;14708;50.872;5.306;2023-09-18T02:23:29;4.65;;;2.92;;
27187;SDS011;14708;50.872;5.306;2023-09-18T02:25:58;3.15;;;2.83;;
27187;SDS011;14708;50.872;5.306;2023-09-18T02:28:24;2.85;;;2.65;;
27187;SDS011;14708;50.872;5.306;2023-09-18T02:30:50;3.00;;;2.72;;
27187;SDS011;14708;50.872;5.306;2023-09-18T02:33:16;3.38;;;3.08;;
27187;SDS011;14708;50.872;5.306;2023-09-18T02:35:42;3.90;;;2.83;;
27187;SDS011;14708;50.872;5.306;2023-09-18T02:38:08;3.63;;;3.25;;
27187;SDS011;14708;50.872;5.306;2023-09-18T02:40:34;3.60;;;3.00;;
27187;SDS011;14708;50.872;5.306;2023-09-18T02:43:00;3.85;;;2.75;;
27187;SDS011;14708;50.872;5.306;2023-09-18T02:45:27;3.35;;;3.05;;
27187;SDS011;14708;50.872;5.306;2023-09-18T02:47:52;4.97;;;2.90;;
27187;SDS011;14708;50.872;5.306;2023-09-18T02:50:18;3.95;;;3.50;;
27187;SDS011;14708;50.872;5.306;2023-09-18T02:52:44;3.25;;;2.95;;
27187;SDS011;14708;50.872;5.306;2023-09-18T02:55:09;3.05;;;2.75;;
27187;SDS011;14708;50.872;5.306;2023-09-18T02:57:35;3.15;;;2.85;;
27187;SDS011;14708;50.872;5.306;2023-09-18T03:00:01;3.60;;;3.30;;
27187;SDS011;14708;50.872;5.306;2023-09-18T03:02:28;3.45;;;2.53;;
27187;SDS011;14708;50.872;5.306;2023-09-18T03:04:55;4.95;;;2.88;;
27187;SDS011;14708;50.872;5.306;2023-09-18T03:07:21;3.00;;;2.70;;
27187;SDS011;14708;50.872;5.306;2023-09-18T03:09:47;3.47;;;2.92;;
27187;SDS011;14708;50.872;5.306;2023-09-18T03:12:13;3.13;;;2.80;;
27187;SDS011;14708;50.872;5.306;2023-09-18T03:14:38;3.58;;;3.17;;
27187;SDS011;14708;50.872;5.306;2023-09-18T03:17:04;2.88;;;2.67;;
27187;SDS011;14708;50.872;5.306;2023-09-18T03:19:30;3.15;;;2.85;;
27187;SDS011;14708;50.872;5.306;2023-09-18T03:21:55;3.20;;;2.92;;
27187;SDS011;14708;50.872;5.306;2023-09-18T03:24:21;3.22;;;2.92;;
27187;SDS011;14708;50.872;5.306;2023-09-18T03:26:47;5.40;;;3.30;;
27187;SDS011;14708;50.872;5.306;2023-09-18T03:29:14;3.03;;;2.70;;
27187;SDS011;14708;50.872;5.306;2023-09-18T03:31:40;3.75;;;3.10;;
27187;SDS011;14708;50.872;5.306;2023-09-18T03:34:05;2.80;;;2.60;;
27187;SDS011;14708;50.872;5.306;2023-09-18T03:36:31;2.88;;;2.67;;
27187;SDS011;14708;50.872;5.306;2023-09-18T03:38:57;3.15;;;2.85;;
27187;SDS011;14708;50.872;5.306;2023-09-18T03:41:23;3.40;;;3.10;;
27187;SDS011;14708;50.872;5.306;2023-09-18T03:43:50;3.90;;;2.80;;
27187;SDS011;14708;50.872;5.306;2023-09-18T03:46:15;3.35;;;2.80;;
27187;SDS011;14708;50.872;5.306;2023-09-18T03:48:41;3.60;;;3.20;;
27187;SDS011;14708;50.872;5.306;2023-09-18T03:51:06;3.20;;;2.90;;
27187;SDS011;14708;50.872;5.306;2023-09-18T03:53:33;2.97;;;2.72;;
27187;SDS011;14708;50.872;5.306;2023-09-18T03:55:59;3.35;;;2.60;;
27187;SDS011;14708;50.872;5.306;2023-09-18T03:58:25;2.80;;;2.55;;
27187;SDS011;14708;50.872;5.306;2023-09-18T04:00:51;3.47;;;3.03;;
27187;SDS011;14708;50.872;5.306;2023-09-18T04:03:17;3.20;;;2.90;;
27187;SDS011;14708;50.872;5.306;2023-09-18T04:05:43;4.18;;;3.17;;
27187;SDS011;14708;50.872;5.306;2023-09-18T04:08:09;3.50;;;3.20;;
27187;SDS011;14708;50.872;5.306;2023-09-18T04:10:36;2.92;;;2.72;;
27187;SDS011;14708;50.872;5.306;2023-09-18T04:13:01;3.63;;;3.10;;
27187;SDS011;14708;50.872;5.306;2023-09-18T04:15:27;3.50;;;3.20;;
27187;SDS011;14708;50.872;5.306;2023-09-18T04:17:55;4.88;;;2.97;;
27187;SDS011;14708;50.872;5.306;2023-09-18T04:20:21;3.38;;;2.83;;
27187;SDS011;14708;50.872;5.306;2023-09-18T04:25:43;3.03;;;2.70;;
27187;SDS011;14708;50.872;5.306;2023-09-18T04:28:09;2.90;;;2.63;;
27187;SDS011;14708;50.872;5.306;2023-09-18T04:30:35;3.08;;;2.78;;
27187;SDS011;14708;50.872;5.306;2023-09-18T04:33:01;2.58;;;2.38;;
27187;SDS011;14708;50.872;5.306;2023-09-18T04:35:26;3.03;;;2.72;;
27187;SDS011;14708;50.872;5.306;2023-09-18T04:37:55;2.45;;;2.25;;
27187;SDS011;14708;50.872;5.306;2023-09-18T04:42:48;3.17;;;2.67;;
27187;SDS011;14708;50.872;5.306;2023-09-18T04:45:14;3.95;;;3.38;;
27187;SDS011;14708;50.872;5.306;2023-09-18T04:47:41;2.70;;;2.50;;
27187;SDS011;14708;50.872;5.306;2023-09-18T04:50:07;3.03;;;2.83;;
27187;SDS011;14708;50.872;5.306;2023-09-18T04:52:34;3.75;;;2.65;;
27187;SDS011;14708;50.872;5.306;2023-09-18T04:55:04;2.92;;;2.63;;
27187;SDS011;14708;50.872;5.306;2023-09-18T04:57:31;3.45;;;3.05;;
27187;SDS011;14708;50.872;5.306;2023-09-18T04:59:56;2.97;;;2.50;;
27187;SDS011;14708;50.872;5.306;2023-09-18T05:02:22;2.53;;;2.33;;
27187;SDS011;14708;50.872;5.306;2023-09-18T05:04:50;3.30;;;2.63;;
27187;SDS011;14708;50.872;5.306;2023-09-18T05:07:16;2.65;;;2.45;;
27187;SDS011;14708;50.872;5.306;2023-09-18T05:09:42;3.70;;;2.83;;
27187;SDS011;14708;50.872;5.306;2023-09-18T05:12:08;2.65;;;2.45;;
27187;SDS011;14708;50.872;5.306;2023-09-18T05:14:39;3.28;;;2.60;;
27187;SDS011;14708;50.872;5.306;2023-09-18T05:17:05;3.20;;;2.90;;
27187;SDS011;14708;50.872;5.306;2023-09-18T05:19:31;3.17;;;2.85;;
27187;SDS011;14708;50.872;5.306;2023-09-18T05:21:57;3.08;;;2.78;;
27187;SDS011;14708;50.872;5.306;2023-09-18T05:24:23;2.95;;;2.35;;
27187;SDS011;14708;50.872;5.306;2023-09-18T05:26:52;2.80;;;2.60;;
27187;SDS011;14708;50.872;5.306;2023-09-18T05:29:18;3.42;;;2.85;;
27187;SDS011;14708;50.872;5.306;2023-09-18T05:31:44;3.20;;;2.90;;
27187;SDS011;14708;50.872;5.306;2023-09-18T05:34:11;3.45;;;2.72;;
27187;SDS011;14708;50.872;5.306;2023-09-18T05:36:37;2.63;;;2.42;;
27187;SDS011;14708;50.872;5.306;2023-09-18T05:39:03;3.33;;;2.90;;
27187;SDS011;14708;50.872;5.306;2023-09-18T05:41:29;3.05;;;2.85;;
27187;SDS011;14708;50.872;5.306;2023-09-18T05:43:56;3.40;;;3.10;;
27187;SDS011;14708;50.872;5.306;2023-09-18T05:46:22;2.92;;;2.55;;
27187;SDS011;14708;50.872;5.306;2023-09-18T05:48:47;2.83;;;2.60;;
27187;SDS011;14708;50.872;5.306;2023-09-18T05:51:13;2.83;;;2.63;;
27187;SDS011;14708;50.872;5.306;2023-09-18T05:53:39;2.88;;;2.45;;
27187;SDS011;14708;50.872;5.306;2023-09-18T05:56:05;3.00;;;2.70;;
27187;SDS011;14708;50.872;5.306;2023-09-18T05:58:31;3.47;;;2.42;;
27187;SDS011;14708;50.872;5.306;2023-09-18T06:01:00;3.00;;;2.65;;
27187;SDS011;14708;50.872;5.306;2023-09-18T06:03:29;3.70;;;2.40;;
27187;SDS011;14708;50.872;5.306;2023-09-18T06:06:00;3.00;;;2.70;;
27187;SDS011;14708;50.872;5.306;2023-09-18T06:08:29;3.13;;;2.63;;
27187;SDS011;14708;50.872;5.306;2023-09-18T06:10:56;3.75;;;2.67;;
27187;SDS011;14708;50.872;5.306;2023-09-18T06:13:25;4.22;;;2.70;;
27187;SDS011;14708;50.872;5.306;2023-09-18T06:15:55;2.90;;;2.58;;
27187;SDS011;14708;50.872;5.306;2023-09-18T06:18:22;3.05;;;2.55;;
27187;SDS011;14708;50.872;5.306;2023-09-18T06:20:48;3.78;;;2.45;;
27187;SDS011;14708;50.872;5.306;2023-09-18T06:23:14;2.67;;;2.38;;
27187;SDS011;14708;50.872;5.306;2023-09-18T06:25:40;2.90;;;2.50;;
27187;SDS011;14708;50.872;5.306;2023-09-18T06:28:06;4.70;;;2.80;;
27187;SDS011;14708;50.872;5.306;2023-09-18T06:30:34;3.10;;;2.42;;
27187;SDS011;14708;50.872;5.306;2023-09-18T06:33:09;2.35;;;2.10;;
27187;SDS011;14708;50.872;5.306;2023-09-18T06:35:42;4.13;;;1.90;;
27187;SDS011;14708;50.872;5.306;2023-09-18T06:38:16;3.55;;;2.30;;
27187;SDS011;14708;50.872;5.306;2023-09-18T06:40:41;2.70;;;2.15;;
27187;SDS011;14708;50.872;5.306;2023-09-18T06:43:07;3.30;;;2.25;;
27187;SDS011;14708;50.872;5.306;2023-09-18T06:45:33;2.90;;;1.90;;
27187;SDS011;14708;50.872;5.306;2023-09-18T06:47:59;2.78;;;1.90;;
27187;SDS011;14708;50.872;5.306;2023-09-18T06:50:28;3.15;;;1.83;;
27187;SDS011;14708;50.872;5.306;2023-09-18T06:52:54;5.40;;;1.98;;
27187;SDS011;14708;50.872;5.306;2023-09-18T06:55:19;2.95;;;1.98;;
27187;SDS011;14708;50.872;5.306;2023-09-18T06:57:53;4.82;;;2.05;;
27187;SDS011;14708;50.872;5.306;2023-09-18T07:00:22;6.35;;;1.80;;
27187;SDS011;14708;50.872;5.306;2023-09-18T07:02:47;4.35;;;2.17;;
27187;SDS011;14708;50.872;5.306;2023-09-18T07:05:14;4.88;;;1.85;;
27187;SDS011;14708;50.872;5.306;2023-09-18T07:07:42;3.97;;;1.60;;
27187;SDS011;14708;50.872;5.306;2023-09-18T07:13:13;4.95;;;1.77;;
27187;SDS011;14708;50.872;5.306;2023-09-18T07:15:52;3.42;;;1.45;;
27187;SDS011;14708;50.872;5.306;2023-09-18T07:18:18;1.90;;;1.48;;
27187;SDS011;14708;50.872;5.306;2023-09-18T07:23:56;2.78;;;1.25;;
27187;SDS011;14708;50.872;5.306;2023-09-18T07:26:24;4.07;;;1.40;;
27187;SDS011;14708;50.872;5.306;2023-09-18T07:28:50;25.90;;;4.68;;
27187;SDS011;14708;50.872;5.306;2023-09-18T07:31:15;62.10;;;11.25;;
27187;SDS011;14708;50.872;5.306;2023-09-18T07:33:41;40.83;;;8.68;;
27187;SDS011;14708;50.872;5.306;2023-09-18T07:36:07;31.30;;;6.85;;
27187;SDS011;14708;50.872;5.306;2023-09-18T07:38:34;21.88;;;5.25;;
27187;SDS011;14708;50.872;5.306;2023-09-18T07:41:01;28.15;;;5.38;;
27187;SDS011;14708;50.872;5.306;2023-09-18T07:43:27;20.40;;;4.35;;
27187;SDS011;14708;50.872;5.306;2023-09-18T07:45:53;15.77;;;4.20;;
27187;SDS011;14708;50.872;5.306;2023-09-18T07:48:22;16.73;;;3.70;;
27187;SDS011;14708;50.872;5.306;2023-09-18T07:50:48;8.65;;;3.05;;
27187;SDS011;14708;50.872;5.306;2023-09-18T07:53:14;12.93;;;3.33;;
27187;SDS011;14708;50.872;5.306;2023-09-18T07:55:41;5.85;;;2.33;;
27187;SDS011;14708;50.872;5.306;2023-09-18T07:58:06;8.63;;;2.30;;
27187;SDS011;14708;50.872;5.306;2023-09-18T08:00:32;9.75;;;3.10;;
27187;SDS011;14708;50.872;5.306;2023-09-18T08:02:58;8.52;;;2.67;;
27187;SDS011;14708;50.872;5.306;2023-09-18T08:05:26;12.73;;;2.83;;
27187;SDS011;14708;50.872;5.306;2023-09-18T08:07:56;9.38;;;2.90;;
27187;SDS011;14708;50.872;5.306;2023-09-18T08:10:24;9.60;;;3.30;;
27187;SDS011;14708;50.872;5.306;2023-09-18T08:12:52;12.88;;;2.90;;
27187;SDS011;14708;50.872;5.306;2023-09-18T08:15:21;9.95;;;3.08;;
27187;SDS011;14708;50.872;5.306;2023-09-18T08:17:47;8.85;;;2.75;;
27187;SDS011;14708;50.872;5.306;2023-09-18T08:20:14;8.18;;;2.50;;
27187;SDS011;14708;50.872;5.306;2023-09-18T08:22:41;9.05;;;2.50;;
27187;SDS011;14708;50.872;5.306;2023-09-18T08:25:10;6.07;;;2.00;;
27187;SDS011;14708;50.872;5.306;2023-09-18T08:27:37;7.28;;;2.47;;
27187;SDS011;14708;50.872;5.306;2023-09-18T08:30:07;8.27;;;2.47;;
27187;SDS011;14708;50.872;5.306;2023-09-18T08:32:35;7.90;;;2.65;;
27187;SDS011;14708;50.872;5.306;2023-09-18T08:35:01;5.57;;;2.05;;
27187;SDS011;14708;50.872;5.306;2023-09-18T08:37:27;4.72;;;2.17;;
27187;SDS011;14708;50.872;5.306;2023-09-18T08:39:53;6.43;;;2.25;;
27187;SDS011;14708;50.872;5.306;2023-09-18T08:42:19;5.57;;;2.45;;
27187;SDS011;14708;50.872;5.306;2023-09-18T08:44:48;3.53;;;2.00;;
27187;SDS011;14708;50.872;5.306;2023-09-18T08:47:16;6.05;;;1.58;;
27187;SDS011;14708;50.872;5.306;2023-09-18T08:49:43;3.45;;;1.60;;
27187;SDS011;14708;50.872;5.306;2023-09-18T08:52:11;4.50;;;1.60;;
27187;SDS011;14708;50.872;5.306;2023-09-18T08:54:39;4.30;;;1.80;;
27187;SDS011;14708;50.872;5.306;2023-09-18T08:57:05;5.25;;;1.80;;
27187;SDS011;14708;50.872;5.306;2023-09-18T08:59:33;3.55;;;1.60;;
27187;SDS011;14708;50.872;5.306;2023-09-18T09:02:01;5.70;;;1.65;;
27187;SDS011;14708;50.872;5.306;2023-09-18T09:04:27;2.88;;;1.50;;
27187;SDS011;14708;50.872;5.306;2023-09-18T09:06:53;4.65;;;1.92;;
27187;SDS011;14708;50.872;5.306;2023-09-18T09:09:24;3.33;;;1.30;;
27187;SDS011;14708;50.872;5.306;2023-09-18T09:11:51;2.28;;;1.40;;
27187;SDS011;14708;50.872;5.306;2023-09-18T09:14:17;3.88;;;1.60;;
27187;SDS011;14708;50.872;5.306;2023-09-18T09:16:55;1.80;;;1.33;;
27187;SDS011;14708;50.872;5.306;2023-09-18T09:19:27;2.88;;;1.60;;
27187;SDS011;14708;50.872;5.306;2023-09-18T09:21:58;3.35;;;1.80;;
27187;SDS011;14708;50.872;5.306;2023-09-18T09:24:38;3.93;;;1.47;;
27187;SDS011;14708;50.872;5.306;2023-09-18T09:27:08;3.60;;;1.80;;
27187;SDS011;14708;50.872;5.306;2023-09-18T09:29:35;3.30;;;1.30;;
27187;SDS011;14708;50.872;5.306;2023-09-18T09:32:17;2.78;;;1.70;;
27187;SDS011;14708;50.872;5.306;2023-09-18T09:34:44;4.10;;;1.45;;
27187;SDS011;14708;50.872;5.306;2023-09-18T09:37:11;2.20;;;1.40;;
27187;SDS011;14708;50.872;5.306;2023-09-18T09:39:48;2.17;;;1.25;;
27187;SDS011;14708;50.872;5.306;2023-09-18T09:42:19;4.38;;;1.35;;
27187;SDS011;14708;50.872;5.306;2023-09-18T09:45:03;4.53;;;1.80;;
27187;SDS011;14708;50.872;5.306;2023-09-18T09:47:32;3.95;;;1.52;;
27187;SDS011;14708;50.872;5.306;2023-09-18T09:50:08;2.83;;;1.52;;
27187;SDS011;14708;50.872;5.306;2023-09-18T09:52:42;2.70;;;1.38;;
27187;SDS011;14708;50.872;5.306;2023-09-18T09:55:24;5.22;;;1.80;;
27187;SDS011;14708;50.872;5.306;2023-09-18T09:57:54;1.80;;;1.45;;
27187;SDS011;14708;50.872;5.306;2023-09-18T10:00:31;3.05;;;1.50;;
27187;SDS011;14708;50.872;5.306;2023-09-18T10:03:18;4.07;;;1.60;;
27187;SDS011;14708;50.872;5.306;2023-09-18T10:05:46;4.53;;;1.60;;
27187;SDS011;14708;50.872;5.306;2023-09-18T10:08:25;3.67;;;1.63;;
27187;SDS011;14708;50.872;5.306;2023-09-18T10:10:53;7.32;;;1.90;;
27187;SDS011;14708;50.872;5.306;2023-09-18T10:13:23;3.33;;;1.65;;
27187;SDS011;14708;50.872;5.306;2023-09-18T10:16:04;8.73;;;1.92;;
27187;SDS011;14708;50.872;5.306;2023-09-18T10:21:47;3.28;;;1.60;;
27187;SDS011;14708;50.872;5.306;2023-09-18T10:24:28;4.05;;;1.70;;
27187;SDS011;14708;50.872;5.306;2023-09-18T10:26:59;4.28;;;1.98;;
27187;SDS011;14708;50.872;5.306;2023-09-18T10:29:30;4.85;;;2.00;;
27187;SDS011;14708;50.872;5.306;2023-09-18T10:31:58;3.38;;;1.60;;
27187;SDS011;14708;50.872;5.306;2023-09-18T10:34:24;6.63;;;1.60;;
27187;SDS011;14708;50.872;5.306;2023-09-18T10:36:51;5.82;;;2.15;;
27187;SDS011;14708;50.872;5.306;2023-09-18T10:39:18;6.50;;;2.05;;
27187;SDS011;14708;50.872;5.306;2023-09-18T10:41:55;3.47;;;1.48;;
27187;SDS011;14708;50.872;5.306;2023-09-18T10:44:27;4.13;;;2.05;;
27187;SDS011;14708;50.872;5.306;2023-09-18T10:46:56;6.53;;;1.95;;
27187;SDS011;14708;50.872;5.306;2023-09-18T10:49:23;4.05;;;1.65;;
27187;SDS011;14708;50.872;5.306;2023-09-18T10:52:08;2.20;;;1.48;;
27187;SDS011;14708;50.872;5.306;2023-09-18T10:54:38;4.60;;;1.80;;
27187;SDS011;14708;50.872;5.306;2023-09-18T10:57:05;5.90;;;2.28;;
27187;SDS011;14708;50.872;5.306;2023-09-18T10:59:31;3.60;;;1.65;;
27187;SDS011;14708;50.872;5.306;2023-09-18T11:02:02;6.70;;;1.33;;
27187;SDS011;14708;50.872;5.306;2023-09-18T11:04:34;2.33;;;1.60;;
27187;SDS011;14708;50.872;5.306;2023-09-18T11:07:03;3.28;;;1.73;;
27187;SDS011;14708;50.872;5.306;2023-09-18T11:09:31;3.70;;;2.03;;
27187;SDS011;14708;50.872;5.306;2023-09-18T11:12:08;8.07;;;1.92;;
27187;SDS011;14708;50.872;5.306;2023-09-18T11:22:45;6.47;;;1.88;;
27187;SDS011;14708;50.872;5.306;2023-09-18T11:28:29;3.95;;;1.95;;
27187;SDS011;14708;50.872;5.306;2023-09-18T11:30:57;7.32;;;1.63;;
27187;SDS011;14708;50.872;5.306;2023-09-18T11:33:40;3.47;;;1.92;;
27187;SDS011;14708;50.872;5.306;2023-09-18T11:36:14;2.20;;;1.33;;
27187;SDS011;14708;50.872;5.306;2023-09-18T11:39:09;4.78;;;1.92;;
27187;SDS011;14708;50.872;5.306;2023-09-18T11:42:05;5.30;;;2.35;;
27187;SDS011;14708;50.872;5.306;2023-09-18T11:44:33;6.93;;;2.00;;
27187;SDS011;14708;50.872;5.306;2023-09-18T11:47:01;7.53;;;2.20;;
27187;SDS011;14708;50.872;5.306;2023-09-18T11:53:02;6.72;;;1.80;;
27187;SDS011;14708;50.872;5.306;2023-09-18T11:56:02;6.90;;;2.28;;
27187;SDS011;14708;50.872;5.306;2023-09-18T11:58:45;6.95;;;1.77;;
27187;SDS011;14708;50.872;5.306;2023-09-18T12:01:25;4.85;;;2.03;;
27187;SDS011;14708;50.872;5.306;2023-09-18T12:04:51;6.60;;;1.90;;
27187;SDS011;14708;50.872;5.306;2023-09-18T12:07:40;5.57;;;2.25;;
27187;SDS011;14708;50.872;5.306;2023-09-18T12:10:28;5.25;;;2.50;;
27187;SDS011;14708;50.872;5.306;2023-09-18T12:13:31;3.13;;;1.70;;
27187;SDS011;14708;50.872;5.306;2023-09-18T12:16:01;5.68;;;2.13;;
27187;SDS011;14708;50.872;5.306;2023-09-18T12:18:45;4.15;;;1.85;;
27187;SDS011;14708;50.872;5.306;2023-09-18T12:21:16;6.22;;;1.90;;
27187;SDS011;14708;50.872;5.306;2023-09-18T12:26:55;4.28;;;1.95;;
27187;SDS011;14708;50.872;5.306;2023-09-18T12:30:19;3.92;;;1.63;;
27187;SDS011;14708;50.872;5.306;2023-09-18T12:36:33;3.60;;;1.67;;
27187;SDS011;14708;50.872;5.306;2023-09-18T12:38:59;3.25;;;1.70;;
27187;SDS011;14708;50.872;5.306;2023-09-18T12:41:28;4.07;;;1.63;;
27187;SDS011;14708;50.872;5.306;2023-09-18T12:43:55;3.22;;;1.58;;
27187;SDS011;14708;50.872;5.306;2023-09-18T12:46:21;7.85;;;2.15;;
27187;SDS011;14708;50.872;5.306;2023-09-18T12:49:06;2.88;;;1.67;;
27187;SDS011;14708;50.872;5.306;2023-09-18T12:52:09;2.35;;;1.60;;
27187;SDS011;14708;50.872;5.306;2023-09-18T12:54:52;7.57;;;1.80;;
27187;SDS011;14708;50.872;5.306;2023-09-18T12:57:21;3.80;;;1.75;;
27187;SDS011;14708;50.872;5.306;2023-09-18T12:59:46;5.13;;;2.38;;
27187;SDS011;14708;50.872;5.306;2023-09-18T13:02:16;4.23;;;2.00;;
27187;SDS011;14708;50.872;5.306;2023-09-18T13:04:50;3.10;;;1.67;;
27187;SDS011;14708;50.872;5.306;2023-09-18T13:07:17;5.40;;;1.77;;
27187;SDS011;14708;50.872;5.306;2023-09-18T13:09:57;4.50;;;1.73;;
27187;SDS011;14708;50.872;5.306;2023-09-18T13:12:24;4.15;;;1.85;;
27187;SDS011;14708;50.872;5.306;2023-09-18T13:15:02;5.00;;;1.73;;
27187;SDS011;14708;50.872;5.306;2023-09-18T13:20:21;3.55;;;1.67;;
27187;SDS011;14708;50.872;5.306;2023-09-18T13:22:52;3.33;;;1.52;;
27187;SDS011;14708;50.872;5.306;2023-09-18T13:25:20;3.25;;;1.70;;
27187;SDS011;14708;50.872;5.306;2023-09-18T13:27:48;5.20;;;2.03;;
27187;SDS011;14708;50.872;5.306;2023-09-18T13:30:18;3.58;;;2.00;;
27187;SDS011;14708;50.872;5.306;2023-09-18T13:32:46;6.32;;;2.08;;
27187;SDS011;14708;50.872;5.306;2023-09-18T13:35:18;31.13;;;5.85;;
27187;SDS011;14708;50.872;5.306;2023-09-18T13:37:44;49.33;;;8.80;;
27187;SDS011;14708;50.872;5.306;2023-09-18T13:40:11;33.78;;;7.18;;
27187;SDS011;14708;50.872;5.306;2023-09-18T13:42:37;28.13;;;6.82;;
27187;SDS011;14708;50.872;5.306;2023-09-18T13:45:08;47.28;;;10.82;;
27187;SDS011;14708;50.872;5.306;2023-09-18T13:47:35;42.65;;;10.65;;
27187;SDS011;14708;50.872;5.306;2023-09-18T13:50:02;35.47;;;9.07;;
27187;SDS011;14708;50.872;5.306;2023-09-18T13:52:30;37.55;;;10.05;;
27187;SDS011;14708;50.872;5.306;2023-09-18T13:54:58;37.50;;;9.43;;
27187;SDS011;14708;50.872;5.306;2023-09-18T13:57:24;30.15;;;8.80;;
27187;SDS011;14708;50.872;5.306;2023-09-18T13:59:50;22.83;;;6.97;;
27187;SDS011;14708;50.872;5.306;2023-09-18T14:02:17;18.55;;;5.90;;
27187;SDS011;14708;50.872;5.306;2023-09-18T14:04:44;20.70;;;4.40;;
27187;SDS011;14708;50.872;5.306;2023-09-18T14:07:10;21.58;;;5.22;;
27187;SDS011;14708;50.872;5.306;2023-09-18T14:09:36;17.35;;;5.68;;
27187;SDS011;14708;50.872;5.306;2023-09-18T14:12:03;18.58;;;4.82;;
27187;SDS011;14708;50.872;5.306;2023-09-18T14:14:32;15.88;;;4.53;;
27187;SDS011;14708;50.872;5.306;2023-09-18T14:16:58;14.35;;;3.92;;
27187;SDS011;14708;50.872;5.306;2023-09-18T14:19:24;17.48;;;5.25;;
27187;SDS011;14708;50.872;5.306;2023-09-18T14:21:50;13.50;;;4.95;;
27187;SDS011;14708;50.872;5.306;2023-09-18T14:24:17;12.57;;;4.07;;
27187;SDS011;14708;50.872;5.306;2023-09-18T14:26:49;16.10;;;5.05;;
27187;SDS011;14708;50.872;5.306;2023-09-18T14:29:15;12.10;;;4.22;;
27187;SDS011;14708;50.872;5.306;2023-09-18T14:31:41;13.82;;;4.20;;
27187;SDS011;14708;50.872;5.306;2023-09-18T14:34:07;14.15;;;3.53;;
27187;SDS011;14708;50.872;5.306;2023-09-18T14:36:36;7.20;;;2.60;;
27187;SDS011;14708;50.872;5.306;2023-09-18T14:39:04;8.52;;;3.15;;
27187;SDS011;14708;50.872;5.306;2023-09-18T14:41:34;8.25;;;2.97;;
27187;SDS011;14708;50.872;5.306;2023-09-18T14:44:06;9.23;;;3.15;;
27187;SDS011;14708;50.872;5.306;2023-09-18T14:46:34;10.52;;;3.60;;
27187;SDS011;14708;50.872;5.306;2023-09-18T14:51:29;8.75;;;2.85;;
27187;SDS011;14708;50.872;5.306;2023-09-18T14:53:55;10.25;;;2.85;;
27187;SDS011;14708;50.872;5.306;2023-09-18T14:56:22;6.57;;;2.65;;
27187;SDS011;14708;50.872;5.306;2023-09-18T14:58:48;11.95;;;2.80;;
27187;SDS011;14708;50.872;5.306;2023-09-18T15:01:15;8.32;;;2.75;;
27187;SDS011;14708;50.872;5.306;2023-09-18T15:03:40;5.28;;;2.25;;
27187;SDS011;14708;50.872;5.306;2023-09-18T15:06:06;5.22;;;2.05;;
27187;SDS011;14708;50.872;5.306;2023-09-18T15:08:33;7.68;;;2.70;;
27187;SDS011;14708;50.872;5.306;2023-09-18T15:10:59;4.50;;;1.90;;
27187;SDS011;14708;50.872;5.306;2023-09-18T15:13:25;5.70;;;1.90;;
27187;SDS011;14708;50.872;5.306;2023-09-18T15:15:51;4.20;;;1.58;;
27187;SDS011;14708;50.872;5.306;2023-09-18T15:18:19;3.03;;;1.10;;
27187;SDS011;14708;50.872;5.306;2023-09-18T15:20:46;5.40;;;2.30;;
27187;SDS011;14708;50.872;5.306;2023-09-18T15:23:12;3.30;;;1.45;;
27187;SDS011;14708;50.872;5.306;2023-09-18T15:25:38;3.65;;;1.50;;
27187;SDS011;14708;50.872;5.306;2023-09-18T15:28:06;4.72;;;1.45;;
27187;SDS011;14708;50.872;5.306;2023-09-18T15:30:32;3.38;;;1.88;;
27187;SDS011;14708;50.872;5.306;2023-09-18T15:33:00;4.25;;;1.30;;
27187;SDS011;14708;50.872;5.306;2023-09-18T15:35:26;6.05;;;1.90;;
27187;SDS011;14708;50.872;5.306;2023-09-18T15:37:53;3.17;;;1.63;;
27187;SDS011;14708;50.872;5.306;2023-09-18T15:40:20;2.67;;;1.38;;
27187;SDS011;14708;50.872;5.306;2023-09-18T15:42:51;3.78;;;1.50;;
27187;SDS011;14708;50.872;5.306;2023-09-18T15:45:18;4.00;;;1.58;;